sensor_id;sensor_type;location;lat;lon;timestamp;pressure;altitude;pressure_sealevel;temperature;humidity
33697;BME280;20031;43.416;23.232;2024-02-23T00:02:24;99624.41;;;7.45;72.88
33697;BME280;20031;43.416;23.232;2024-02-23T00:04:50;99635.06;;;7.42;72.84
33697;BME280;20031;43.416;23.232;2024-02-23T00:07:15;99632.34;;;7.43;73.22
33697;BME280;20031;43.416;23.232;2024-02-23T00:09:41;99628.63;;;7.46;73.27
33697;BME280;20031;43.416;23.232;2024-02-23T00:12:06;99626.84;;;7.46;73.44
33697;BME280;20031;43.416;23.232;2024-02-23T00:14:34;99618.94;;;7.48;73.19
33697;BME280;20031;43.416;23.232;2024-02-23T00:17:04;99622.34;;;7.48;73.06
33697;BME280;20031;43.416;23.232;2024-02-23T00:19:30;99625.09;;;7.47;73.31
33697;BME280;20031;43.416;23.232;2024-02-23T00:21:56;99617.63;;;7.44;73.14
33697;BME280;20031;43.416;23.232;2024-02-23T00:24:24;99629.59;;;7.45;73.45
33697;BME280;20031;43.416;23.232;2024-02-23T00:26:50;99616.16;;;7.41;73.00
33697;BME280;20031;43.416;23.232;2024-02-23T00:29:17;99612.75;;;7.41;73.54
33697;BME280;20031;43.416;23.232;2024-02-23T00:31:43;99605.63;;;7.43;73.56
33697;BME280;20031;43.416;23.232;2024-02-23T00:34:10;99604.53;;;7.45;73.30
33697;BME280;20031;43.416;23.232;2024-02-23T00:36:41;99593.03;;;7.48;73.60
33697;BME280;20031;43.416;23.232;2024-02-23T00:39:07;99605.97;;;7.48;73.18
33697;BME280;20031;43.416;23.232;2024-02-23T00:41:36;99598.88;;;7.50;73.15
33697;BME280;20031;43.416;23.232;2024-02-23T00:44:02;99603.13;;;7.51;72.77
33697;BME280;20031;43.416;23.232;2024-02-23T00:46:28;99605.81;;;7.49;72.57
33697;BME280;20031;43.416;23.232;2024-02-23T00:48:54;99606.81;;;7.48;72.95
33697;BME280;20031;43.416;23.232;2024-02-23T00:51:19;99608.56;;;7.48;72.72
33697;BME280;20031;43.416;23.232;2024-02-23T00:53:45;99610.19;;;7.49;72.53
33697;BME280;20031;43.416;23.232;2024-02-23T00:56:10;99607.75;;;7.47;72.98
33697;BME280;20031;43.416;23.232;2024-02-23T00:58:36;99601.78;;;7.47;72.55
33697;BME280;20031;43.416;23.232;2024-02-23T01:01:01;99613.09;;;7.46;72.69
33697;BME280;20031;43.416;23.232;2024-02-23T01:03:27;99607.91;;;7.46;73.00
33697;BME280;20031;43.416;23.232;2024-02-23T01:05:52;99616.78;;;7.43;72.38
33697;BME280;20031;43.416;23.232;2024-02-23T01:08:19;99610.16;;;7.41;72.71
33697;BME280;20031;43.416;23.232;2024-02-23T01:10:44;99611.91;;;7.40;72.51
33697;BME280;20031;43.416;23.232;2024-02-23T01:13:10;99605.94;;;7.40;72.78
33697;BME280;20031;43.416;23.232;2024-02-23T01:15:35;99604.16;;;7.40;72.67
33697;BME280;20031;43.416;23.232;2024-02-23T01:18:01;99596.91;;;7.44;72.31
33697;BME280;20031;43.416;23.232;2024-02-23T01:20:26;99603.22;;;7.49;72.31
33697;BME280;20031;43.416;23.232;2024-02-23T01:22:52;99592.44;;;7.54;71.86
33697;BME280;20031;43.416;23.232;2024-02-23T01:25:17;99598.19;;;7.65;71.66
33697;BME280;20031;43.416;23.232;2024-02-23T01:27:43;99592.56;;;7.69;71.08
33697;BME280;20031;43.416;23.232;2024-02-23T01:30:10;99597.06;;;7.67;70.82
33697;BME280;20031;43.416;23.232;2024-02-23T01:32:35;99595.31;;;7.68;70.77
33697;BME280;20031;43.416;23.232;2024-02-23T01:35:04;99597.06;;;7.67;70.75
33697;BME280;20031;43.416;23.232;2024-02-23T01:37:29;99598.06;;;7.66;70.48
33697;BME280;20031;43.416;23.232;2024-02-23T01:39:55;99592.88;;;7.66;70.17
33697;BME280;20031;43.416;23.232;2024-02-23T01:42:21;99597.06;;;7.67;69.98
33697;BME280;20031;43.416;23.232;2024-02-23T01:44:47;99591.22;;;7.65;70.14
33697;BME280;20031;43.416;23.232;2024-02-23T01:47:12;99591.22;;;7.65;70.18
33697;BME280;20031;43.416;23.232;2024-02-23T01:49:38;99593.81;;;7.65;70.01
33697;BME280;20031;43.416;23.232;2024-02-23T01:52:04;99593.66;;;7.67;70.09
33697;BME280;20031;43.416;23.232;2024-02-23T01:54:30;99595.59;;;7.65;69.83
33697;BME280;20031;43.416;23.232;2024-02-23T01:56:57;99594.63;;;7.66;70.23
33697;BME280;20031;43.416;23.232;2024-02-23T01:59:26;99589.59;;;7.64;70.09
33697;BME280;20031;43.416;23.232;2024-02-23T02:01:52;99594.78;;;7.64;70.38
33697;BME280;20031;43.416;23.232;2024-02-23T02:04:18;99593.31;;;7.62;70.19
33697;BME280;20031;43.416;23.232;2024-02-23T02:06:45;99587.75;;;7.57;70.48
33697;BME280;20031;43.416;23.232;2024-02-23T02:09:11;99599.22;;;7.55;70.70
33697;BME280;20031;43.416;23.232;2024-02-23T02:11:57;99585.63;;;7.53;70.74
33697;BME280;20031;43.416;23.232;2024-02-23T02:14:22;99586.75;;;7.50;70.68
33697;BME280;20031;43.416;23.232;2024-02-23T02:16:48;99592.75;;;7.51;70.71
33697;BME280;20031;43.416;23.232;2024-02-23T02:19:14;99596.44;;;7.48;70.65
33697;BME280;20031;43.416;23.232;2024-02-23T02:21:40;99591.72;;;7.44;70.89
33697;BME280;20031;43.416;23.232;2024-02-23T02:24:06;99598.00;;;7.41;71.17
33697;BME280;20031;43.416;23.232;2024-02-23T02:26:32;99592.16;;;7.39;70.93
33697;BME280;20031;43.416;23.232;2024-02-23T02:28:57;99592.28;;;7.38;70.72
33697;BME280;20031;43.416;23.232;2024-02-23T02:31:23;99597.31;;;7.39;70.25
33697;BME280;20031;43.416;23.232;2024-02-23T02:33:48;99589.72;;;7.38;70.21
33697;BME280;20031;43.416;23.232;2024-02-23T02:36:14;99588.09;;;7.37;70.15
33697;BME280;20031;43.416;23.232;2024-02-23T02:38:39;99601.34;;;7.34;70.19
33697;BME280;20031;43.416;23.232;2024-02-23T02:41:05;99600.16;;;7.28;70.14
33697;BME280;20031;43.416;23.232;2024-02-23T02:43:31;99599.34;;;7.28;70.31
33697;BME280;20031;43.416;23.232;2024-02-23T02:45:57;99595.13;;;7.27;69.79
33697;BME280;20031;43.416;23.232;2024-02-23T02:48:23;99602.06;;;7.26;70.33
33697;BME280;20031;43.416;23.232;2024-02-23T02:50:49;99596.25;;;7.24;70.17
33697;BME280;20031;43.416;23.232;2024-02-23T02:53:15;99599.78;;;7.23;70.00
33697;BME280;20031;43.416;23.232;2024-02-23T02:55:44;99589.88;;;7.19;70.39
33697;BME280;20031;43.416;23.232;2024-02-23T02:58:13;99593.41;;;7.18;70.55
33697;BME280;20031;43.416;23.232;2024-02-23T03:00:38;99590.31;;;7.14;70.66
33697;BME280;20031;43.416;23.232;2024-02-23T03:03:04;99599.88;;;7.14;71.09
33697;BME280;20031;43.416;23.232;2024-02-23T03:05:30;99602.31;;;7.15;71.44
33697;BME280;20031;43.416;23.232;2024-02-23T03:07:55;99597.13;;;7.15;71.56
33697;BME280;20031;43.416;23.232;2024-02-23T03:10:21;99598.91;;;7.15;71.92
33697;BME280;20031;43.416;23.232;2024-02-23T03:12:46;99600.84;;;7.13;72.02
33697;BME280;20031;43.416;23.232;2024-02-23T03:15:12;99596.59;;;7.12;72.04
33697;BME280;20031;43.416;23.232;2024-02-23T03:17:37;99598.38;;;7.11;72.15
33697;BME280;20031;43.416;23.232;2024-02-23T03:20:03;99595.66;;;7.13;72.24
33697;BME280;20031;43.416;23.232;2024-02-23T03:22:36;99593.06;;;7.13;72.38
33697;BME280;20031;43.416;23.232;2024-02-23T03:25:03;99589.53;;;7.14;72.15
33697;BME280;20031;43.416;23.232;2024-02-23T03:27:34;99599.88;;;7.14;72.14
33697;BME280;20031;43.416;23.232;2024-02-23T03:30:00;99598.25;;;7.13;72.09
33697;BME280;20031;43.416;23.232;2024-02-23T03:32:25;99591.28;;;7.13;72.20
33697;BME280;20031;43.416;23.232;2024-02-23T03:34:51;99598.09;;;7.14;71.99
33697;BME280;20031;43.416;23.232;2024-02-23T03:37:17;99599.34;;;7.10;72.04
33697;BME280;20031;43.416;23.232;2024-02-23T03:39:42;99592.41;;;7.11;72.25
33697;BME280;20031;43.416;23.232;2024-02-23T03:42:08;99591.44;;;7.12;71.84
33697;BME280;20031;43.416;23.232;2024-02-23T03:44:33;99588.03;;;7.11;71.85
33697;BME280;20031;43.416;23.232;2024-02-23T03:46:59;99581.06;;;7.12;71.91
33697;BME280;20031;43.416;23.232;2024-02-23T03:49:24;99582.19;;;7.09;72.22
33697;BME280;20031;43.416;23.232;2024-02-23T03:51:50;99590.94;;;7.09;72.10
33697;BME280;20031;43.416;23.232;2024-02-23T03:54:15;99588.19;;;7.10;72.57
33697;BME280;20031;43.416;23.232;2024-02-23T03:56:41;99576.88;;;7.11;72.70
33697;BME280;20031;43.416;23.232;2024-02-23T03:59:08;99590.47;;;7.13;72.73
33697;BME280;20031;43.416;23.232;2024-02-23T04:01:38;99585.28;;;7.13;72.70
33697;BME280;20031;43.416;23.232;2024-02-23T04:04:04;99579.97;;;7.14;72.94
33697;BME280;20031;43.416;23.232;2024-02-23T04:06:30;99585.16;;;7.14;73.09
33697;BME280;20031;43.416;23.232;2024-02-23T04:08:56;99594.69;;;7.14;72.24
33697;BME280;20031;43.416;23.232;2024-02-23T04:11:21;99576.44;;;7.15;72.44
33697;BME280;20031;43.416;23.232;2024-02-23T04:13:47;99596.16;;;7.16;72.67
33697;BME280;20031;43.416;23.232;2024-02-23T04:16:12;99569.53;;;7.24;72.53
33697;BME280;20031;43.416;23.232;2024-02-23T04:18:38;99580.72;;;7.24;72.44
33697;BME280;20031;43.416;23.232;2024-02-23T04:21:04;99568.94;;;7.30;72.14
33697;BME280;20031;43.416;23.232;2024-02-23T04:23:30;99570.28;;;7.34;71.84
33697;BME280;20031;43.416;23.232;2024-02-23T04:25:55;99575.94;;;7.37;71.13
33697;BME280;20031;43.416;23.232;2024-02-23T04:28:21;99573.75;;;7.42;70.90
33697;BME280;20031;43.416;23.232;2024-02-23T04:30:46;99560.63;;;7.44;70.62
33697;BME280;20031;43.416;23.232;2024-02-23T04:33:12;99576.53;;;7.49;70.39
33697;BME280;20031;43.416;23.232;2024-02-23T04:35:38;99582.25;;;7.52;70.25
33697;BME280;20031;43.416;23.232;2024-02-23T04:38:03;99577.72;;;7.54;70.00
33697;BME280;20031;43.416;23.232;2024-02-23T04:40:29;99577.09;;;7.60;70.06
33697;BME280;20031;43.416;23.232;2024-02-23T04:42:54;99575.75;;;7.73;69.66
33697;BME280;20031;43.416;23.232;2024-02-23T04:45:19;99580.66;;;7.84;68.87
33697;BME280;20031;43.416;23.232;2024-02-23T04:47:45;99581.19;;;7.88;68.25
33697;BME280;20031;43.416;23.232;2024-02-23T04:50:12;99582.34;;;7.93;68.11
33697;BME280;20031;43.416;23.232;2024-02-23T04:52:38;99582.53;;;8.00;67.56
33697;BME280;20031;43.416;23.232;2024-02-23T04:55:03;99584.97;;;8.01;67.07
33697;BME280;20031;43.416;23.232;2024-02-23T04:57:29;99583.69;;;8.05;67.16
33697;BME280;20031;43.416;23.232;2024-02-23T04:59:54;99574.13;;;8.06;66.71
33697;BME280;20031;43.416;23.232;2024-02-23T05:02:20;99587.97;;;8.14;66.40
33697;BME280;20031;43.416;23.232;2024-02-23T05:04:45;99589.47;;;8.16;65.79
33697;BME280;20031;43.416;23.232;2024-02-23T05:07:11;99577.97;;;8.19;65.28
33697;BME280;20031;43.416;23.232;2024-02-23T05:09:37;99580.28;;;8.30;65.44
33697;BME280;20031;43.416;23.232;2024-02-23T05:12:03;99590.06;;;8.36;64.63
33697;BME280;20031;43.416;23.232;2024-02-23T05:14:28;99585.34;;;8.39;64.25
33697;BME280;20031;43.416;23.232;2024-02-23T05:16:54;99589.75;;;8.39;63.98
33697;BME280;20031;43.416;23.232;2024-02-23T05:19:19;99592.13;;;8.32;63.64
33697;BME280;20031;43.416;23.232;2024-02-23T05:21:45;99589.06;;;8.29;63.75
33697;BME280;20031;43.416;23.232;2024-02-23T05:24:11;99590.97;;;8.27;63.84
33697;BME280;20031;43.416;23.232;2024-02-23T05:26:36;99588.22;;;8.28;63.93
33697;BME280;20031;43.416;23.232;2024-02-23T05:29:02;99589.06;;;8.29;63.87
33697;BME280;20031;43.416;23.232;2024-02-23T05:31:48;99587.63;;;8.34;63.96
33697;BME280;20031;43.416;23.232;2024-02-23T05:34:13;99596.34;;;8.33;63.92
33697;BME280;20031;43.416;23.232;2024-02-23T05:36:39;99605.63;;;8.36;64.21
33697;BME280;20031;43.416;23.232;2024-02-23T05:39:04;99601.56;;;8.41;64.19
33697;BME280;20031;43.416;23.232;2024-02-23T05:41:30;99604.38;;;8.48;64.32
33697;BME280;20031;43.416;23.232;2024-02-23T05:43:56;99608.28;;;8.60;63.89
33697;BME280;20031;43.416;23.232;2024-02-23T05:46:21;99611.28;;;8.72;64.23
33697;BME280;20031;43.416;23.232;2024-02-23T05:48:46;99611.97;;;8.90;63.29
33697;BME280;20031;43.416;23.232;2024-02-23T05:51:12;99613.81;;;9.14;63.34
33697;BME280;20031;43.416;23.232;2024-02-23T05:53:37;99598.56;;;9.34;62.05
33697;BME280;20031;43.416;23.232;2024-02-23T05:56:03;99601.00;;;9.60;61.28
33697;BME280;20031;43.416;23.232;2024-02-23T05:58:29;99605.84;;;9.86;60.30
33697;BME280;20031;43.416;23.232;2024-02-23T06:00:54;99609.56;;;10.08;59.28
33697;BME280;20031;43.416;23.232;2024-02-23T06:03:20;99608.53;;;10.32;56.99
33697;BME280;20031;43.416;23.232;2024-02-23T06:05:45;99614.94;;;10.52;56.46
33697;BME280;20031;43.416;23.232;2024-02-23T06:08:11;99612.31;;;10.68;56.06
33697;BME280;20031;43.416;23.232;2024-02-23T06:10:36;99603.53;;;10.91;54.93
33697;BME280;20031;43.416;23.232;2024-02-23T06:13:03;99604.69;;;11.19;53.13
33697;BME280;20031;43.416;23.232;2024-02-23T06:15:28;99600.72;;;11.53;51.18
33697;BME280;20031;43.416;23.232;2024-02-23T06:17:54;99609.16;;;12.06;48.94
33697;BME280;20031;43.416;23.232;2024-02-23T06:20:19;99605.50;;;12.44;46.73
33697;BME280;20031;43.416;23.232;2024-02-23T06:22:45;99591.41;;;12.73;44.80
33697;BME280;20031;43.416;23.232;2024-02-23T06:25:10;99592.31;;;12.95;43.75
33697;BME280;20031;43.416;23.232;2024-02-23T06:27:37;99588.00;;;13.08;43.96
33697;BME280;20031;43.416;23.232;2024-02-23T06:30:03;99588.31;;;13.20;43.51
33697;BME280;20031;43.416;23.232;2024-02-23T06:32:28;99601.09;;;13.29;42.82
33697;BME280;20031;43.416;23.232;2024-02-23T06:34:54;99605.47;;;13.43;42.55
33697;BME280;20031;43.416;23.232;2024-02-23T06:37:20;99606.19;;;13.58;41.98
33697;BME280;20031;43.416;23.232;2024-02-23T06:39:45;99606.13;;;13.72;42.05
33697;BME280;20031;43.416;23.232;2024-02-23T06:42:15;99608.63;;;13.86;41.97
33697;BME280;20031;43.416;23.232;2024-02-23T06:44:40;99607.94;;;13.99;42.33
33697;BME280;20031;43.416;23.232;2024-02-23T06:47:06;99600.41;;;14.10;41.88
33697;BME280;20031;43.416;23.232;2024-02-23T06:49:32;99596.06;;;14.24;41.83
33697;BME280;20031;43.416;23.232;2024-02-23T06:51:57;99606.63;;;14.36;41.42
33697;BME280;20031;43.416;23.232;2024-02-23T06:54:22;99595.56;;;14.47;39.97
33697;BME280;20031;43.416;23.232;2024-02-23T06:56:48;99599.69;;;14.63;39.53
33697;BME280;20031;43.416;23.232;2024-02-23T06:59:13;99595.91;;;14.78;39.69
33697;BME280;20031;43.416;23.232;2024-02-23T07:01:49;99590.91;;;14.89;39.07
33697;BME280;20031;43.416;23.232;2024-02-23T07:04:15;99583.47;;;14.99;38.37
33697;BME280;20031;43.416;23.232;2024-02-23T07:06:40;99589.34;;;15.01;38.64
33697;BME280;20031;43.416;23.232;2024-02-23T07:09:05;99593.13;;;14.92;37.89
33697;BME280;20031;43.416;23.232;2024-02-23T07:11:31;99601.19;;;14.84;38.63
33697;BME280;20031;43.416;23.232;2024-02-23T07:13:56;99598.00;;;14.95;38.78
33697;BME280;20031;43.416;23.232;2024-02-23T07:16:22;99600.09;;;15.19;38.31
33697;BME280;20031;43.416;23.232;2024-02-23T07:18:47;99591.66;;;15.36;37.91
33697;BME280;20031;43.416;23.232;2024-02-23T07:21:12;99603.41;;;15.47;37.37
33697;BME280;20031;43.416;23.232;2024-02-23T07:23:38;99595.72;;;15.45;37.21
33697;BME280;20031;43.416;23.232;2024-02-23T07:26:03;99596.53;;;15.59;37.42
33697;BME280;20031;43.416;23.232;2024-02-23T07:28:29;99592.69;;;15.81;37.00
33697;BME280;20031;43.416;23.232;2024-02-23T07:30:54;99590.06;;;16.00;36.48
33697;BME280;20031;43.416;23.232;2024-02-23T07:33:20;99593.66;;;16.18;36.36
33697;BME280;20031;43.416;23.232;2024-02-23T07:35:46;99593.66;;;16.31;36.01
33697;BME280;20031;43.416;23.232;2024-02-23T07:38:11;99590.78;;;16.52;35.84
33697;BME280;20031;43.416;23.232;2024-02-23T07:40:37;99601.47;;;16.57;35.00
33697;BME280;20031;43.416;23.232;2024-02-23T07:43:02;99581.47;;;16.56;35.13
33697;BME280;20031;43.416;23.232;2024-02-23T07:45:28;99594.38;;;16.64;35.02
33697;BME280;20031;43.416;23.232;2024-02-23T07:47:53;99591.13;;;16.68;34.71
33697;BME280;20031;43.416;23.232;2024-02-23T07:50:19;99587.41;;;16.88;34.93
33697;BME280;20031;43.416;23.232;2024-02-23T07:52:44;99588.13;;;17.02;34.84
33697;BME280;20031;43.416;23.232;2024-02-23T07:55:09;99590.97;;;17.00;34.65
33697;BME280;20031;43.416;23.232;2024-02-23T07:57:35;99594.53;;;17.12;34.49
33697;BME280;20031;43.416;23.232;2024-02-23T08:00:00;99597.19;;;17.12;34.72
33697;BME280;20031;43.416;23.232;2024-02-23T08:02:26;99590.66;;;17.21;34.76
33697;BME280;20031;43.416;23.232;2024-02-23T08:04:52;99591.63;;;17.33;34.95
33697;BME280;20031;43.416;23.232;2024-02-23T08:07:17;99595.03;;;16.96;34.57
33697;BME280;20031;43.416;23.232;2024-02-23T08:09:43;99596.41;;;16.62;35.26
33697;BME280;20031;43.416;23.232;2024-02-23T08:12:08;99598.25;;;16.48;35.32
33697;BME280;20031;43.416;23.232;2024-02-23T08:14:34;99601.63;;;16.75;35.57
33697;BME280;20031;43.416;23.232;2024-02-23T08:17:00;99604.56;;;16.97;35.25
33697;BME280;20031;43.416;23.232;2024-02-23T08:19:25;99607.31;;;17.15;35.02
33697;BME280;20031;43.416;23.232;2024-02-23T08:21:50;99602.72;;;17.41;35.12
33697;BME280;20031;43.416;23.232;2024-02-23T08:24:16;99607.31;;;17.52;34.40
33697;BME280;20031;43.416;23.232;2024-02-23T08:26:42;99600.28;;;17.71;34.25
33697;BME280;20031;43.416;23.232;2024-02-23T08:29:08;99607.47;;;17.82;34.25
33697;BME280;20031;43.416;23.232;2024-02-23T08:31:34;99605.69;;;18.00;33.85
33697;BME280;20031;43.416;23.232;2024-02-23T08:33:59;99622.53;;;17.99;33.59
33697;BME280;20031;43.416;23.232;2024-02-23T08:36:24;99603.75;;;18.13;33.91
33697;BME280;20031;43.416;23.232;2024-02-23T08:38:50;99614.13;;;18.08;33.21
33697;BME280;20031;43.416;23.232;2024-02-23T08:41:15;99611.66;;;18.13;33.30
33697;BME280;20031;43.416;23.232;2024-02-23T08:43:41;99613.47;;;18.19;33.42
33697;BME280;20031;43.416;23.232;2024-02-23T08:46:06;99610.25;;;18.35;33.29
33697;BME280;20031;43.416;23.232;2024-02-23T08:48:32;99602.63;;;18.45;33.26
33697;BME280;20031;43.416;23.232;2024-02-23T08:50:57;99597.88;;;18.71;32.81
33697;BME280;20031;43.416;23.232;2024-02-23T08:53:23;99603.44;;;18.63;32.40
33697;BME280;20031;43.416;23.232;2024-02-23T08:55:48;99606.75;;;18.59;32.53
33697;BME280;20031;43.416;23.232;2024-02-23T08:58:14;99606.75;;;18.59;31.97
33697;BME280;20031;43.416;23.232;2024-02-23T09:00:39;99604.41;;;18.69;32.01
33697;BME280;20031;43.416;23.232;2024-02-23T09:03:05;99603.38;;;18.70;32.00
33697;BME280;20031;43.416;23.232;2024-02-23T09:05:30;99604.06;;;18.94;32.06
33697;BME280;20031;43.416;23.232;2024-02-23T09:07:56;99597.31;;;18.98;31.63
33697;BME280;20031;43.416;23.232;2024-02-23T09:10:21;99593.66;;;18.99;31.25
33697;BME280;20031;43.416;23.232;2024-02-23T09:12:46;99609.28;;;18.83;31.68
33697;BME280;20031;43.416;23.232;2024-02-23T09:15:12;99598.13;;;18.99;31.48
33697;BME280;20031;43.416;23.232;2024-02-23T09:17:40;99589.41;;;18.98;31.75
33697;BME280;20031;43.416;23.232;2024-02-23T09:20:06;99595.09;;;19.13;31.70
33697;BME280;20031;43.416;23.232;2024-02-23T09:22:32;99603.19;;;19.18;31.90
33697;BME280;20031;43.416;23.232;2024-02-23T09:24:57;99606.47;;;19.43;31.44
33697;BME280;20031;43.416;23.232;2024-02-23T09:27:23;99591.53;;;19.37;31.21
33697;BME280;20031;43.416;23.232;2024-02-23T09:29:51;99602.81;;;19.44;31.59
33697;BME280;20031;43.416;23.232;2024-02-23T09:32:17;99584.00;;;19.52;31.41
33697;BME280;20031;43.416;23.232;2024-02-23T09:34:42;99588.72;;;19.84;31.88
33697;BME280;20031;43.416;23.232;2024-02-23T09:37:08;99583.72;;;20.17;31.34
33697;BME280;20031;43.416;23.232;2024-02-23T09:39:33;99586.59;;;20.15;30.64
33697;BME280;20031;43.416;23.232;2024-02-23T09:41:59;99581.06;;;20.40;30.55
33697;BME280;20031;43.416;23.232;2024-02-23T09:44:32;99596.25;;;20.33;30.27
33697;BME280;20031;43.416;23.232;2024-02-23T09:47:04;99587.19;;;20.29;30.54
33697;BME280;20031;43.416;23.232;2024-02-23T09:49:40;99583.81;;;20.33;30.35
33697;BME280;20031;43.416;23.232;2024-02-23T09:52:09;99576.00;;;20.27;30.58
33697;BME280;20031;43.416;23.232;2024-02-23T09:54:38;99570.25;;;20.41;30.61
33697;BME280;20031;43.416;23.232;2024-02-23T09:57:08;99579.47;;;20.27;30.26
33697;BME280;20031;43.416;23.232;2024-02-23T09:59:35;99567.03;;;19.82;31.13
33697;BME280;20031;43.416;23.232;2024-02-23T10:02:02;99570.00;;;19.86;31.40
33697;BME280;20031;43.416;23.232;2024-02-23T10:04:29;99571.88;;;20.31;31.57
33697;BME280;20031;43.416;23.232;2024-02-23T10:06:56;99569.25;;;20.08;30.69
33697;BME280;20031;43.416;23.232;2024-02-23T10:09:21;99566.50;;;20.14;31.49
33697;BME280;20031;43.416;23.232;2024-02-23T10:11:52;99568.53;;;20.12;30.92
33697;BME280;20031;43.416;23.232;2024-02-23T10:14:18;99561.44;;;20.01;31.25
33697;BME280;20031;43.416;23.232;2024-02-23T10:16:43;99565.53;;;19.86;31.66
33697;BME280;20031;43.416;23.232;2024-02-23T10:19:09;99564.59;;;19.69;32.16
33697;BME280;20031;43.416;23.232;2024-02-23T10:21:34;99576.78;;;19.59;32.39
33697;BME280;20031;43.416;23.232;2024-02-23T10:24:00;99572.63;;;19.63;32.43
33697;BME280;20031;43.416;23.232;2024-02-23T10:26:26;99563.09;;;19.62;32.40
33697;BME280;20031;43.416;23.232;2024-02-23T10:28:52;99553.56;;;19.72;32.22
33697;BME280;20031;43.416;23.232;2024-02-23T10:31:18;99556.09;;;19.67;32.77
33697;BME280;20031;43.416;23.232;2024-02-23T10:33:47;99547.63;;;19.88;32.35
33697;BME280;20031;43.416;23.232;2024-02-23T10:36:17;99553.28;;;19.92;31.86
33697;BME280;20031;43.416;23.232;2024-02-23T10:38:45;99546.13;;;20.03;32.75
33697;BME280;20031;43.416;23.232;2024-02-23T10:41:13;99548.78;;;20.03;32.67
33697;BME280;20031;43.416;23.232;2024-02-23T10:43:45;99537.28;;;19.98;32.13
33697;BME280;20031;43.416;23.232;2024-02-23T10:46:12;99535.78;;;20.13;32.18
33697;BME280;20031;43.416;23.232;2024-02-23T10:48:41;99540.31;;;20.41;31.62
33697;BME280;20031;43.416;23.232;2024-02-23T10:51:07;99530.38;;;20.31;31.42
33697;BME280;20031;43.416;23.232;2024-02-23T10:53:34;99531.50;;;20.24;31.53
33697;BME280;20031;43.416;23.232;2024-02-23T10:56:00;99530.66;;;20.46;31.71
33697;BME280;20031;43.416;23.232;2024-02-23T10:58:26;99523.47;;;20.58;31.57
33697;BME280;20031;43.416;23.232;2024-02-23T11:00:54;99524.91;;;20.49;31.33
33697;BME280;20031;43.416;23.232;2024-02-23T11:03:24;99522.03;;;20.39;31.45
33697;BME280;20031;43.416;23.232;2024-02-23T11:05:50;99520.63;;;20.59;31.47
33697;BME280;20031;43.416;23.232;2024-02-23T11:08:18;99518.66;;;20.55;31.36
33697;BME280;20031;43.416;23.232;2024-02-23T11:10:51;99516.22;;;20.26;31.15
33697;BME280;20031;43.416;23.232;2024-02-23T11:13:40;99511.66;;;20.10;31.86
33697;BME280;20031;43.416;23.232;2024-02-23T11:16:07;99512.25;;;19.89;31.99
33697;BME280;20031;43.416;23.232;2024-02-23T11:18:36;99511.28;;;19.84;32.20
33697;BME280;20031;43.416;23.232;2024-02-23T11:21:04;99508.41;;;19.74;32.13
33697;BME280;20031;43.416;23.232;2024-02-23T11:23:48;99503.47;;;19.77;32.24
33697;BME280;20031;43.416;23.232;2024-02-23T11:26:14;99503.13;;;19.74;31.96
33697;BME280;20031;43.416;23.232;2024-02-23T11:28:50;99496.59;;;19.76;31.78
33697;BME280;20031;43.416;23.232;2024-02-23T11:31:25;99505.44;;;20.04;31.58
33697;BME280;20031;43.416;23.232;2024-02-23T11:33:54;99508.34;;;20.42;31.34
33697;BME280;20031;43.416;23.232;2024-02-23T11:36:32;99489.94;;;20.47;31.30
33697;BME280;20031;43.416;23.232;2024-02-23T11:39:00;99494.63;;;20.17;30.93
33697;BME280;20031;43.416;23.232;2024-02-23T11:41:27;99490.13;;;19.84;31.14
33697;BME280;20031;43.416;23.232;2024-02-23T11:43:54;99504.16;;;19.61;31.68
33697;BME280;20031;43.416;23.232;2024-02-23T11:46:28;99488.50;;;19.37;31.97
33697;BME280;20031;43.416;23.232;2024-02-23T11:48:53;99488.66;;;19.42;32.08
33697;BME280;20031;43.416;23.232;2024-02-23T11:51:20;99479.56;;;19.61;32.48
33697;BME280;20031;43.416;23.232;2024-02-23T11:53:47;99473.97;;;20.31;31.88
33697;BME280;20031;43.416;23.232;2024-02-23T11:56:13;99476.50;;;20.65;30.72
33697;BME280;20031;43.416;23.232;2024-02-23T11:58:40;99464.44;;;20.97;29.87
33697;BME280;20031;43.416;23.232;2024-02-23T12:01:05;99458.66;;;21.32;30.21
33697;BME280;20031;43.416;23.232;2024-02-23T12:03:32;99460.03;;;21.51;29.97
33697;BME280;20031;43.416;23.232;2024-02-23T12:06:01;99446.88;;;21.94;29.54
33697;BME280;20031;43.416;23.232;2024-02-23T12:08:29;99456.19;;;22.17;29.12
33697;BME280;20031;43.416;23.232;2024-02-23T12:10:57;99451.28;;;22.26;28.72
33697;BME280;20031;43.416;23.232;2024-02-23T12:13:26;99446.47;;;22.23;28.73
33697;BME280;20031;43.416;23.232;2024-02-23T12:15:52;99442.56;;;22.09;28.81
33697;BME280;20031;43.416;23.232;2024-02-23T12:18:21;99436.66;;;22.23;28.76
33697;BME280;20031;43.416;23.232;2024-02-23T12:20:49;99445.66;;;22.01;28.94
33697;BME280;20031;43.416;23.232;2024-02-23T12:23:14;99443.66;;;21.92;29.38
33697;BME280;20031;43.416;23.232;2024-02-23T12:25:40;99440.38;;;21.85;28.67
33697;BME280;20031;43.416;23.232;2024-02-23T12:28:06;99441.00;;;21.54;29.33
33697;BME280;20031;43.416;23.232;2024-02-23T12:30:31;99438.59;;;21.52;29.29
33697;BME280;20031;43.416;23.232;2024-02-23T12:33:07;99430.22;;;21.44;28.97
33697;BME280;20031;43.416;23.232;2024-02-23T12:35:34;99427.81;;;21.43;29.03
33697;BME280;20031;43.416;23.232;2024-02-23T12:38:00;99428.63;;;21.27;28.24
33697;BME280;20031;43.416;23.232;2024-02-23T12:40:26;99429.84;;;21.03;28.34
33697;BME280;20031;43.416;23.232;2024-02-23T12:42:51;99427.31;;;20.80;28.50
33697;BME280;20031;43.416;23.232;2024-02-23T12:45:17;99432.09;;;20.67;28.82
33697;BME280;20031;43.416;23.232;2024-02-23T12:47:42;99421.41;;;20.62;28.79
33697;BME280;20031;43.416;23.232;2024-02-23T12:50:08;99423.53;;;20.76;29.03
33697;BME280;20031;43.416;23.232;2024-02-23T12:52:34;99413.13;;;20.70;29.33